WetterOnline ( https://www.wetteronline.de )

Wetter aktuell Arkona

Aktuelles Wetter: Kap Arkona/Rügen (42m)

6-stündlich | Neueste Meldungen
Ortszeit Temperatur Wetter
Fr, 23.08. 8:00 17.1° C fast wolkenlos
Fr, 23.08. 2:00 18.2° C wolkenlos
Do, 22.08. 20:00 19.8° C wolkig
Do, 22.08. 14:00 22.7° C fast wolkenlos
Do, 22.08. 8:00 15.9° C leicht bewölkt
Do, 22.08. 2:00 13.6° C wolkenlos
Mi, 21.08. 20:00 17.2° C wolkenlos
Mi, 21.08. 14:00 18.6° C fast wolkenlos
Ortszeit Temperatur Wetter
Fr, 23.08. 10:00 20.7° C fast wolkenlos
Fr, 23.08. 9:40 20.4° C wolkenlos
Fr, 23.08. 9:30 20.0° C fast wolkenlos
Fr, 23.08. 9:20 20.0° C fast wolkenlos
Fr, 23.08. 9:10 19.6° C fast wolkenlos
Fr, 23.08. 9:00 18.7° C fast wolkenlos
Fr, 23.08. 8:50 18.7° C fast wolkenlos
Fr, 23.08. 8:30 17.9° C fast wolkenlos
Fr, 23.08. 8:00 17.1° C fast wolkenlos
Fr, 23.08. 7:30 16.0° C wolkenlos
Fr, 23.08. 7:00 15.2° C wolkenlos
Ortszeit Relative Feuchte Sichtweite
Fr, 23.08. 8:00 73% 45 km
Fr, 23.08. 2:00 69% 50 km
Do, 22.08. 20:00 73% 50 km
Do, 22.08. 14:00 51% 60 km
Do, 22.08. 8:00 73% >70 km
Do, 22.08. 2:00 93% 55 km
Mi, 21.08. 20:00 63% 60 km
Mi, 21.08. 14:00 65% 45 km
Ortszeit Relative Feuchte Sichtweite
Fr, 23.08. 10:00 60% 50 km
Fr, 23.08. 9:40 61% -
Fr, 23.08. 9:30 63% 35 km
Fr, 23.08. 9:20 63% -
Fr, 23.08. 9:10 65% -
Fr, 23.08. 9:00 67% 45 km
Fr, 23.08. 8:50 67% -
Fr, 23.08. 8:30 70% 45 km
Fr, 23.08. 8:00 73% 45 km
Fr, 23.08. 7:30 78% 50 km
Fr, 23.08. 7:00 81% 40 km
Ortszeit Niederschlagsmenge Niederschlagsart
Fr, 23.08. 8:00 0.0 l/m2 in 12 Std. -
Fr, 23.08. 2:00 0.0 l/m2 in 6 Std. -
Do, 22.08. 20:00 0.0 l/m2 in 12 Std. -
Do, 22.08. 14:00 0.0 l/m2 in 6 Std. -
Do, 22.08. 8:00 0.0 l/m2 in 12 Std. -
Do, 22.08. 2:00 0.0 l/m2 in 6 Std. -
Mi, 21.08. 20:00 0.0 l/m2 in 12 Std. -
Mi, 21.08. 14:00 0.0 l/m2 in 6 Std. -
Ortszeit Niederschlagsmenge Niederschlagsart
Fr, 23.08. 10:00 0.0 l/m2 in 1 Std. -
Fr, 23.08. 9:40 keine Meldung -
Fr, 23.08. 9:30 0.0 l/m2 in 1 Std. -
Fr, 23.08. 9:20 keine Meldung -
Fr, 23.08. 9:10 keine Meldung -
Fr, 23.08. 9:00 0.0 l/m2 in 1 Std. -
Fr, 23.08. 8:50 keine Meldung -
Fr, 23.08. 8:30 0.0 l/m2 in 1 Std. -
Fr, 23.08. 8:00 0.0 l/m2 in 1 Std. -
Fr, 23.08. 7:30 0.0 l/m2 in 1 Std. -
Fr, 23.08. 7:00 0.0 l/m2 in 1 Std. -
Ortszeit Stärke Spitze Richtung
km/h Bft. km/h Grad Sektor
Fr, 23.08. 8:00 18 3 32 220° SW
Fr, 23.08. 2:00 24 4 30 200° S
Do, 22.08. 20:00 14 3 36 150° SO
Do, 22.08. 14:00 15 3 28 160° S
Do, 22.08. 8:00 19 3 22 210° SW
Do, 22.08. 2:00 14 3 18 210° SW
Mi, 21.08. 20:00 17 3 48 250° W
Mi, 21.08. 14:00 39 6 50 260° W
Ortszeit Stärke Spitze Richtung
km/h Bft. km/h Grad Sektor
Fr, 23.08. 10:00 17 3 22 200° S
Fr, 23.08. 9:40 18 3 - 210° SW
Fr, 23.08. 9:30 17 3 22 220° SW
Fr, 23.08. 9:20 17 3 - 220° SW
Fr, 23.08. 9:10 15 3 - 220° SW
Fr, 23.08. 9:00 18 3 25 210° SW
Fr, 23.08. 8:50 18 3 - 210° SW
Fr, 23.08. 8:30 18 3 25 220° SW
Fr, 23.08. 8:00 18 3 25 220° SW
Fr, 23.08. 7:30 18 3 25 220° SW
Fr, 23.08. 7:00 22 4 25 220° SW
Ortszeit Untergrenze Bedeckung Gattung
total tief tief mittel hoch
Fr, 23.08. 8:00 10500 m 2/8 0/8 - - -
Fr, 23.08. 2:00 - 0/8 0/8 - - -
Do, 22.08. 20:00 10500 m 8/8 0/8 - - -
Do, 22.08. 14:00 10500 m 2/8 0/8 - - -
Do, 22.08. 8:00 8700 m 5/8 0/8 - - -
Do, 22.08. 2:00 - 0/8 0/8 - - -
Mi, 21.08. 20:00 - 0/8 0/8 - - -
Mi, 21.08. 14:00 780 m 1/8 1/8 - - -
Ortszeit Bedeckungsgrad in Achtel und Wolkenuntergrenze
Fr, 23.08. 10:00 1(9000m)
Fr, 23.08. 9:40 keine Wolken
Fr, 23.08. 9:30 1(10500m)
Fr, 23.08. 9:20 1(10500m)
Fr, 23.08. 9:10 2(10500m)
Fr, 23.08. 9:00 1(10500m)
Fr, 23.08. 8:50 1(10500m)
Fr, 23.08. 8:30 2(10500m)
Fr, 23.08. 8:00 2(10500m)
Fr, 23.08. 7:30 3(10500m)
Fr, 23.08. 7:00 keine Wolken
Ortszeit Luftdruck NN (hPa) Tendenz (hPa in 3 Std.)
Fr, 23.08. 8:00 1026 + 0,6
Fr, 23.08. 2:00 1025 - 0,3
Do, 22.08. 20:00 1025 - 1,1
Do, 22.08. 14:00 1027 - 1,5
Do, 22.08. 8:00 1029 0,0
Do, 22.08. 2:00 1029 + 0,3
Mi, 21.08. 20:00 1028 + 0,6
Mi, 21.08. 14:00 1027 + 0,3
Ortszeit Luftdruck NN (hPa) Tendenz (hPa in 3 Std.)
Fr, 23.08. 10:00 1026 + 0,6
Fr, 23.08. 9:40 1026 keine Meldung
Fr, 23.08. 9:30 1026 + 0,7
Fr, 23.08. 9:20 1026 keine Meldung
Fr, 23.08. 9:10 1026 keine Meldung
Fr, 23.08. 9:00 1026 + 0,7
Fr, 23.08. 8:50 1026 keine Meldung
Fr, 23.08. 8:30 1026 + 0,7
Fr, 23.08. 8:00 1026 + 0,6
Fr, 23.08. 7:30 1026 + 0,5
Fr, 23.08. 7:00 1026 + 0,5
Ortszeit Schneehöhe (cm)
Fr, 23.08. 8:00 -
Fr, 23.08. 2:00 -
Do, 22.08. 20:00 -
Do, 22.08. 14:00 -
Do, 22.08. 8:00 -
Do, 22.08. 2:00 -
Mi, 21.08. 20:00 -
Mi, 21.08. 14:00 -
Ortszeit Schneehöhe (cm)
Fr, 23.08. 10:00 -
Fr, 23.08. 9:40 -
Fr, 23.08. 9:30 -
Fr, 23.08. 9:20 -
Fr, 23.08. 9:10 -
Fr, 23.08. 9:00 -
Fr, 23.08. 8:50 -
Fr, 23.08. 8:30 -
Fr, 23.08. 8:00 -
Fr, 23.08. 7:30 -
Fr, 23.08. 7:00 -
Link zu dieser Seite / Seite empfehlen

Das Wetter in ...